Time;durP1;ratioP1;P1;durP2;ratioP2;P2;SDS_P1;SDS_P2;PMS_P1;PMS_P2;Temp;Humidity;BMP_temperature;BMP_pressure;BME280_temperature;BME280_humidity;BME280_pressure;Samples;Min_cycle;Max_cycle;Signal;HPM_P1;HPM_P2
2022/01/06 00:01:09;;;;;;;5.47;1.23;;;;;;;;;;5089561;28;20096;-82
2022/01/06 00:03:35;;;;;;;6.30;1.27;;;;;;;;;;5073040;28;20016;-73
2022/01/06 00:06:06;;;;;;;3.80;1.30;;;;;;;;;;5072827;28;20059;-78
2022/01/06 00:08:34;;;;;;;4.72;1.50;;;;;;;;;;5072820;28;20468;-82
2022/01/06 00:11:00;;;;;;;3.15;1.17;;;;;;;;;;5073359;28;20469;-80
2022/01/06 00:13:35;;;;;;;3.08;1.17;;;;;;;;;;5071632;28;20028;-83
2022/01/06 00:17:18;;;;;;;3.30;1.23;;;;;;;;;;5072973;28;20013;-70
2022/01/06 00:24:10;;;;;;;5.60;1.08;;;;;;;;;;5072593;28;20118;-83
2022/01/06 00:26:36;;;;;;;4.00;1.50;;;;;;;;;;5073381;28;20100;-80
2022/01/06 00:29:02;;;;;;;4.20;1.27;;;;;;;;;;5072254;28;20024;-80
2022/01/06 00:31:28;;;;;;;4.75;1.50;;;;;;;;;;5072399;28;20020;-77
2022/01/06 00:33:54;;;;;;;5.22;1.50;;;;;;;;;;5072437;28;20025;-82
2022/01/06 00:36:20;;;;;;;4.47;1.38;;;;;;;;;;5072823;28;20020;-81
2022/01/06 00:38:47;;;;;;;3.38;1.10;;;;;;;;;;5072335;28;20035;-69
2022/01/06 00:41:13;;;;;;;2.95;1.30;;;;;;;;;;5071202;28;20029;-75
2022/01/06 00:43:39;;;;;;;2.95;1.13;;;;;;;;;;5072884;28;20101;-75
2022/01/06 00:46:05;;;;;;;3.45;1.20;;;;;;;;;;5072641;28;20056;-80
2022/01/06 00:48:31;;;;;;;3.90;1.38;;;;;;;;;;5071198;28;20028;-81
2022/01/06 00:50:57;;;;;;;3.55;1.40;;;;;;;;;;5072409;28;20021;-68
2022/01/06 00:53:23;;;;;;;4.38;1.30;;;;;;;;;;5071294;28;20409;-80
2022/01/06 00:55:49;;;;;;;16.20;3.00;;;;;;;;;;5094467;28;20062;-72
2022/01/06 00:58:15;;;;;;;7.25;1.48;;;;;;;;;;5105447;28;20047;-64
2022/01/06 01:00:42;;;;;;;9.18;2.17;;;;;;;;;;5100220;28;20012;-86
2022/01/06 01:03:16;;;;;;;7.28;1.60;;;;;;;;;;5071409;28;20024;-86
2022/01/06 01:05:43;;;;;;;7.28;1.70;;;;;;;;;;5072675;28;20103;-77
2022/01/06 01:08:09;;;;;;;7.63;1.83;;;;;;;;;;5072068;28;20039;-76
2022/01/06 01:10:35;;;;;;;5.28;1.40;;;;;;;;;;5071996;28;20025;-73
2022/01/06 01:13:02;;;;;;;7.50;2.38;;;;;;;;;;5072888;28;20090;-84
2022/01/06 01:15:28;;;;;;;4.78;1.60;;;;;;;;;;5073223;28;20024;-83
2022/01/06 01:18:04;;;;;;;3.53;1.30;;;;;;;;;;5082918;28;20396;-84
2022/01/06 01:20:30;;;;;;;6.03;1.58;;;;;;;;;;5100532;28;20020;-77
2022/01/06 01:22:56;;;;;;;5.45;1.70;;;;;;;;;;5100938;28;20048;-86
2022/01/06 01:25:22;;;;;;;3.95;1.52;;;;;;;;;;5092346;28;20031;-87
2022/01/06 01:27:48;;;;;;;7.50;1.73;;;;;;;;;;5092856;28;20065;-87
2022/01/06 01:30:15;;;;;;;4.85;1.35;;;;;;;;;;5091328;28;20028;-82
2022/01/06 01:32:46;;;;;;;4.63;1.63;;;;;;;;;;5091773;28;20135;-81
2022/01/06 01:35:12;;;;;;;6.03;1.95;;;;;;;;;;5089330;28;20039;-75
2022/01/06 01:37:39;;;;;;;5.03;1.27;;;;;;;;;;5091426;28;20054;-79
2022/01/06 01:40:06;;;;;;;3.97;1.35;;;;;;;;;;5091541;28;20016;-81
2022/01/06 01:42:34;;;;;;;5.22;1.52;;;;;;;;;;5090333;28;20147;-80
2022/01/06 01:45:02;;;;;;;3.13;1.27;;;;;;;;;;5090198;28;20264;-74
2022/01/06 01:47:41;;;;;;;5.43;1.50;;;;;;;;;;5091541;28;20420;-83
2022/01/06 01:50:13;;;;;;;4.22;1.42;;;;;;;;;;5091573;28;20077;-79
2022/01/06 01:52:49;;;;;;;4.97;1.45;;;;;;;;;;5090607;28;20089;-76
2022/01/06 01:55:17;;;;;;;4.18;1.42;;;;;;;;;;5091611;28;20056;-82
2022/01/06 01:57:43;;;;;;;4.03;1.33;;;;;;;;;;5091513;28;20016;-81
2022/01/06 02:00:10;;;;;;;4.70;1.30;;;;;;;;;;5092570;28;20028;-73
2022/01/06 02:02:36;;;;;;;4.72;1.20;;;;;;;;;;5075477;28;20027;-66
2022/01/06 02:05:02;;;;;;;3.63;1.40;;;;;;;;;;5070819;28;20032;-80
2022/01/06 02:07:28;;;;;;;4.03;1.30;;;;;;;;;;5069435;28;20031;-74
2022/01/06 02:09:54;;;;;;;3.67;1.30;;;;;;;;;;5071796;28;20509;-76
2022/01/06 02:12:25;;;;;;;5.43;1.48;;;;;;;;;;5087416;28;20565;-64
2022/01/06 02:14:51;;;;;;;3.90;1.20;;;;;;;;;;5091409;28;20043;-65
2022/01/06 02:17:17;;;;;;;4.00;1.40;;;;;;;;;;5089587;28;20392;-82
2022/01/06 02:19:54;;;;;;;3.42;1.30;;;;;;;;;;5091130;28;20020;-64
2022/01/06 02:22:20;;;;;;;4.03;1.27;;;;;;;;;;5093100;28;20028;-68
2022/01/06 02:24:46;;;;;;;2.78;1.17;;;;;;;;;;5093178;28;20032;-63
2022/01/06 02:27:12;;;;;;;5.13;1.20;;;;;;;;;;5093315;28;20101;-64
2022/01/06 02:29:39;;;;;;;3.58;1.17;;;;;;;;;;5094870;28;20051;-68
2022/01/06 02:32:14;;;;;;;4.10;1.38;;;;;;;;;;5094570;28;20048;-64
2022/01/06 02:34:40;;;;;;;3.17;1.20;;;;;;;;;;5094413;28;20020;-70
2022/01/06 02:37:06;;;;;;;7.72;1.45;;;;;;;;;;5093884;28;20018;-73
2022/01/06 02:39:32;;;;;;;3.67;1.30;;;;;;;;;;5094005;28;20028;-66
2022/01/06 02:41:58;;;;;;;4.10;1.20;;;;;;;;;;5084428;28;20103;-65
2022/01/06 02:44:25;;;;;;;8.13;1.60;;;;;;;;;;5073835;28;20071;-74
2022/01/06 02:46:52;;;;;;;9.10;1.30;;;;;;;;;;5074200;28;20535;-72
2022/01/06 02:49:18;;;;;;;4.55;1.30;;;;;;;;;;5092374;28;20024;-64
2022/01/06 02:51:44;;;;;;;5.53;1.23;;;;;;;;;;5094622;28;20028;-75
2022/01/06 02:54:10;;;;;;;2.90;1.02;;;;;;;;;;5094511;28;20020;-73
2022/01/06 02:56:38;;;;;;;5.13;1.23;;;;;;;;;;5092586;28;20016;-76
2022/01/06 02:59:04;;;;;;;4.53;1.55;;;;;;;;;;5091374;28;20032;-72
2022/01/06 03:01:30;;;;;;;5.57;1.40;;;;;;;;;;5074897;28;20029;-69
2022/01/06 03:03:56;;;;;;;4.32;1.33;;;;;;;;;;5072811;28;20408;-68
2022/01/06 03:06:22;;;;;;;5.70;1.27;;;;;;;;;;5071636;28;20052;-67
2022/01/06 03:08:48;;;;;;;8.95;1.40;;;;;;;;;;5073129;28;20025;-79
2022/01/06 03:11:15;;;;;;;3.28;1.20;;;;;;;;;;5073143;28;20032;-79
2022/01/06 03:13:41;;;;;;;4.90;1.30;;;;;;;;;;5073578;28;20089;-68
2022/01/06 03:16:07;;;;;;;2.35;0.90;;;;;;;;;;5073005;28;20637;-79
2022/01/06 03:18:33;;;;;;;6.53;1.45;;;;;;;;;;5073417;28;20051;-68
2022/01/06 03:20:59;;;;;;;3.78;1.52;;;;;;;;;;5073520;28;20059;-68
2022/01/06 03:23:25;;;;;;;3.88;1.15;;;;;;;;;;5073415;28;20049;-78
2022/01/06 03:25:51;;;;;;;4.63;1.20;;;;;;;;;;5073219;28;20028;-66
2022/01/06 03:28:17;;;;;;;4.60;1.23;;;;;;;;;;5072803;28;20027;-67
2022/01/06 03:30:43;;;;;;;3.85;1.20;;;;;;;;;;5072787;28;20103;-74
2022/01/06 03:33:09;;;;;;;3.03;1.10;;;;;;;;;;5071471;28;20097;-73
2022/01/06 03:35:35;;;;;;;4.18;1.15;;;;;;;;;;5072791;28;20021;-70
2022/01/06 03:38:01;;;;;;;7.03;1.40;;;;;;;;;;5072739;28;20473;-72
2022/01/06 03:40:27;;;;;;;2.60;1.13;;;;;;;;;;5072788;28;20027;-65
2022/01/06 03:42:53;;;;;;;4.00;1.15;;;;;;;;;;5072569;28;20082;-77
2022/01/06 03:45:20;;;;;;;5.70;1.23;;;;;;;;;;5072554;28;20028;-67
2022/01/06 03:47:46;;;;;;;3.10;1.25;;;;;;;;;;5072734;28;20021;-71
2022/01/06 03:50:13;;;;;;;2.70;0.88;;;;;;;;;;5072547;28;20020;-68
2022/01/06 03:52:40;;;;;;;6.18;1.20;;;;;;;;;;5072533;28;20033;-77
2022/01/06 03:55:07;;;;;;;2.97;1.10;;;;;;;;;;5072356;28;20013;-71
2022/01/06 03:57:34;;;;;;;4.13;1.20;;;;;;;;;;5072428;28;20107;-67
2022/01/06 04:00:01;;;;;;;3.00;1.15;;;;;;;;;;5072649;28;20020;-81
2022/01/06 04:02:27;;;;;;;4.70;1.40;;;;;;;;;;5072325;28;20016;-68
2022/01/06 04:04:53;;;;;;;5.80;1.27;;;;;;;;;;5072303;28;20055;-70
2022/01/06 04:07:19;;;;;;;4.38;1.10;;;;;;;;;;5070832;28;20029;-73
2022/01/06 04:09:45;;;;;;;2.85;1.10;;;;;;;;;;5072166;28;20024;-71
2022/01/06 04:12:11;;;;;;;3.83;1.02;;;;;;;;;;5070642;28;20488;-68
2022/01/06 04:14:38;;;;;;;2.70;0.90;;;;;;;;;;5072104;28;20017;-76
2022/01/06 04:17:07;;;;;;;3.85;1.08;;;;;;;;;;5071901;28;20393;-72
2022/01/06 04:19:34;;;;;;;3.38;1.35;;;;;;;;;;5071816;28;20105;-74
2022/01/06 04:22:00;;;;;;;3.22;1.20;;;;;;;;;;5071616;28;20017;-70
2022/01/06 04:24:26;;;;;;;2.88;1.02;;;;;;;;;;5071296;28;20048;-64
2022/01/06 04:26:52;;;;;;;3.30;1.13;;;;;;;;;;5071720;28;20020;-66
2022/01/06 04:29:18;;;;;;;3.08;1.20;;;;;;;;;;5070589;28;20020;-68
2022/01/06 04:31:44;;;;;;;3.30;1.17;;;;;;;;;;5071766;28;20078;-72
2022/01/06 04:34:10;;;;;;;4.53;1.20;;;;;;;;;;5071667;28;20024;-74
2022/01/06 04:36:36;;;;;;;2.95;0.98;;;;;;;;;;5071661;28;20016;-74
2022/01/06 04:39:02;;;;;;;1.98;0.88;;;;;;;;;;5070234;28;20060;-66
2022/01/06 04:41:28;;;;;;;2.63;1.15;;;;;;;;;;5071490;28;20358;-69
2022/01/06 04:43:54;;;;;;;2.13;1.10;;;;;;;;;;5071222;28;20024;-78
2022/01/06 04:46:20;;;;;;;3.03;1.10;;;;;;;;;;5071561;28;20024;-80
2022/01/06 04:48:46;;;;;;;2.95;0.90;;;;;;;;;;5070010;28;20111;-71
2022/01/06 04:51:12;;;;;;;4.80;1.10;;;;;;;;;;5071372;28;20047;-75
2022/01/06 04:53:39;;;;;;;3.00;1.13;;;;;;;;;;5071220;28;20035;-79
2022/01/06 04:56:05;;;;;;;3.25;1.13;;;;;;;;;;5071382;28;20048;-76
2022/01/06 04:58:32;;;;;;;2.72;1.00;;;;;;;;;;5071320;28;20108;-65
2022/01/06 05:00:59;;;;;;;3.03;0.88;;;;;;;;;;5071405;28;20071;-78
2022/01/06 05:03:25;;;;;;;4.38;1.40;;;;;;;;;;5071009;28;20023;-68
2022/01/06 05:05:51;;;;;;;3.97;1.10;;;;;;;;;;5070825;28;20053;-71
2022/01/06 05:08:17;;;;;;;4.63;1.30;;;;;;;;;;5070983;28;20021;-77
2022/01/06 05:10:43;;;;;;;3.13;0.90;;;;;;;;;;5070426;28;20104;-65
2022/01/06 05:13:09;;;;;;;2.95;1.00;;;;;;;;;;5070530;28;20048;-71
2022/01/06 05:15:35;;;;;;;4.53;1.02;;;;;;;;;;5070951;28;20077;-75
2022/01/06 05:18:01;;;;;;;3.20;0.95;;;;;;;;;;5070833;28;20478;-73
2022/01/06 05:20:28;;;;;;;2.47;0.90;;;;;;;;;;5071092;28;20373;-67
2022/01/06 05:22:56;;;;;;;4.05;1.17;;;;;;;;;;5070821;28;20067;-69
2022/01/06 05:25:26;;;;;;;4.10;0.98;;;;;;;;;;5070518;28;20021;-78
2022/01/06 05:27:53;;;;;;;3.55;1.10;;;;;;;;;;5070902;28;20035;-66
2022/01/06 05:30:19;;;;;;;3.00;1.17;;;;;;;;;;5069688;28;20500;-71
2022/01/06 05:32:45;;;;;;;3.08;1.00;;;;;;;;;;5070766;28;20044;-72
2022/01/06 05:35:11;;;;;;;3.00;0.90;;;;;;;;;;5070773;28;20027;-68
2022/01/06 05:37:37;;;;;;;3.85;1.02;;;;;;;;;;5071037;28;20078;-73
2022/01/06 05:40:04;;;;;;;1.88;0.80;;;;;;;;;;5070845;28;20495;-76
2022/01/06 05:42:30;;;;;;;4.75;1.20;;;;;;;;;;5070808;28;20099;-75
2022/01/06 05:44:56;;;;;;;2.75;1.05;;;;;;;;;;5071100;28;20044;-77
2022/01/06 05:47:22;;;;;;;4.15;1.27;;;;;;;;;;5070565;28;20028;-74
2022/01/06 05:49:48;;;;;;;3.33;1.08;;;;;;;;;;5069413;28;20556;-79
2022/01/06 05:52:15;;;;;;;2.83;1.05;;;;;;;;;;5070762;28;20039;-78
2022/01/06 05:54:41;;;;;;;2.92;1.10;;;;;;;;;;5070894;28;20028;-69
2022/01/06 05:57:08;;;;;;;3.83;1.17;;;;;;;;;;5072727;28;20024;-70
2022/01/06 05:59:34;;;;;;;5.18;1.02;;;;;;;;;;5074578;28;20036;-71
2022/01/06 06:02:01;;;;;;;3.25;1.10;;;;;;;;;;5074616;28;20031;-75
2022/01/06 06:04:28;;;;;;;3.20;1.17;;;;;;;;;;5074374;28;20031;-74
2022/01/06 06:06:54;;;;;;;2.75;1.00;;;;;;;;;;5074962;28;20073;-74
2022/01/06 06:09:20;;;;;;;3.95;1.25;;;;;;;;;;5084235;28;20019;-71
2022/01/06 06:11:46;;;;;;;2.22;0.82;;;;;;;;;;5083304;28;20056;-70
2022/01/06 06:14:12;;;;;;;2.38;1.00;;;;;;;;;;5075008;28;20025;-67
2022/01/06 06:16:38;;;;;;;3.30;1.15;;;;;;;;;;5074560;28;20473;-71
2022/01/06 06:19:04;;;;;;;2.90;1.02;;;;;;;;;;5072964;28;20465;-71
2022/01/06 06:21:30;;;;;;;5.40;1.05;;;;;;;;;;5074367;28;20020;-73
2022/01/06 06:23:56;;;;;;;2.38;1.08;;;;;;;;;;5073698;28;20432;-75
2022/01/06 06:26:22;;;;;;;3.47;1.15;;;;;;;;;;5072628;28;20032;-71
2022/01/06 06:28:48;;;;;;;3.67;1.05;;;;;;;;;;5074137;28;20046;-77
2022/01/06 06:31:14;;;;;;;5.47;1.05;;;;;;;;;;5074061;28;20082;-79
2022/01/06 06:33:40;;;;;;;3.97;1.33;;;;;;;;;;5072370;28;20040;-78
2022/01/06 06:36:07;;;;;;;3.15;1.08;;;;;;;;;;5074042;28;20111;-81
2022/01/06 06:38:33;;;;;;;3.13;1.30;;;;;;;;;;5073960;28;20021;-79
2022/01/06 06:40:59;;;;;;;4.35;1.20;;;;;;;;;;5073455;28;20031;-71
2022/01/06 06:43:25;;;;;;;2.60;1.13;;;;;;;;;;5072466;28;20116;-71
2022/01/06 06:45:51;;;;;;;3.15;1.27;;;;;;;;;;5073695;28;20028;-68
2022/01/06 06:48:17;;;;;;;3.83;1.20;;;;;;;;;;5073515;28;20028;-73
2022/01/06 06:50:43;;;;;;;3.40;1.10;;;;;;;;;;5073595;28;20389;-66
2022/01/06 06:53:09;;;;;;;4.13;1.23;;;;;;;;;;5073375;28;20032;-75
2022/01/06 06:55:35;;;;;;;3.38;1.17;;;;;;;;;;5073457;28;20021;-74
2022/01/06 06:58:02;;;;;;;3.60;1.25;;;;;;;;;;5073463;28;20024;-76
2022/01/06 07:00:28;;;;;;;2.83;1.17;;;;;;;;;;5073458;28;20059;-74
2022/01/06 07:02:54;;;;;;;3.45;1.27;;;;;;;;;;5072201;28;20035;-79
2022/01/06 07:05:21;;;;;;;3.00;1.27;;;;;;;;;;5072143;28;20025;-78
2022/01/06 07:07:47;;;;;;;4.03;1.38;;;;;;;;;;5073060;28;20023;-74
2022/01/06 07:10:14;;;;;;;3.00;1.20;;;;;;;;;;5072346;28;20377;-75
2022/01/06 07:12:44;;;;;;;3.80;1.00;;;;;;;;;;5073153;28;20036;-72
2022/01/06 07:15:11;;;;;;;3.65;1.17;;;;;;;;;;5072975;28;20032;-69
2022/01/06 07:17:37;;;;;;;2.88;1.10;;;;;;;;;;5072940;28;20020;-75
2022/01/06 07:20:04;;;;;;;3.63;1.00;;;;;;;;;;5072104;28;20025;-71
2022/01/06 07:22:30;;;;;;;3.05;1.20;;;;;;;;;;5073028;28;20063;-81
2022/01/06 07:24:56;;;;;;;2.55;1.00;;;;;;;;;;5073174;28;20028;-76
2022/01/06 07:27:22;;;;;;;6.95;1.40;;;;;;;;;;5073068;28;20100;-69
2022/01/06 07:29:48;;;;;;;3.90;1.40;;;;;;;;;;5073056;28;20029;-73
2022/01/06 07:32:14;;;;;;;4.15;1.30;;;;;;;;;;5071608;28;20106;-80
2022/01/06 07:34:40;;;;;;;2.67;1.02;;;;;;;;;;5072874;28;20059;-79
2022/01/06 07:37:06;;;;;;;3.95;1.50;;;;;;;;;;5072808;28;20082;-72
2022/01/06 07:39:33;;;;;;;2.53;1.02;;;;;;;;;;5073066;28;20583;-79
2022/01/06 07:41:59;;;;;;;3.70;1.13;;;;;;;;;;5072995;28;20103;-78
2022/01/06 07:44:25;;;;;;;2.28;1.00;;;;;;;;;;5072521;28;20024;-77
2022/01/06 07:46:51;;;;;;;4.53;1.30;;;;;;;;;;5072536;28;20385;-74
2022/01/06 07:49:17;;;;;;;3.13;1.20;;;;;;;;;;5072419;28;20024;-74
2022/01/06 07:51:43;;;;;;;2.75;1.15;;;;;;;;;;5072370;28;20020;-75
2022/01/06 07:54:09;;;;;;;2.85;0.90;;;;;;;;;;5072510;28;20029;-73
2022/01/06 07:56:35;;;;;;;3.38;1.05;;;;;;;;;;5070923;28;20021;-77
2022/01/06 07:59:01;;;;;;;3.38;1.15;;;;;;;;;;5072273;28;20442;-78
2022/01/06 08:01:28;;;;;;;4.90;1.38;;;;;;;;;;5072895;28;20024;-85
2022/01/06 08:03:54;;;;;;;4.88;1.42;;;;;;;;;;5073267;28;20032;-68
2022/01/06 08:06:20;;;;;;;2.95;1.13;;;;;;;;;;5073438;28;20575;-80
2022/01/06 08:08:46;;;;;;;3.25;1.15;;;;;;;;;;5073116;28;20023;-78
2022/01/06 08:11:13;;;;;;;2.53;1.08;;;;;;;;;;5075698;28;20091;-81
2022/01/06 08:13:39;;;;;;;4.90;1.10;;;;;;;;;;5074675;28;20117;-76
2022/01/06 08:16:05;;;;;;;3.08;1.23;;;;;;;;;;5072043;28;20028;-71
2022/01/06 08:18:31;;;;;;;3.85;1.33;;;;;;;;;;5070293;28;20465;-75
2022/01/06 08:20:58;;;;;;;5.43;1.10;;;;;;;;;;5071318;28;20021;-73
2022/01/06 08:23:25;;;;;;;4.45;1.30;;;;;;;;;;5070363;28;20106;-73
2022/01/06 08:25:51;;;;;;;4.22;1.40;;;;;;;;;;5070548;28;20500;-72
2022/01/06 08:28:17;;;;;;;4.13;1.38;;;;;;;;;;5070267;28;20090;-68
2022/01/06 08:30:44;;;;;;;4.00;1.20;;;;;;;;;;5070354;28;20115;-79
2022/01/06 08:33:10;;;;;;;4.20;1.10;;;;;;;;;;5070424;28;20235;-80
2022/01/06 08:35:36;;;;;;;3.65;1.27;;;;;;;;;;5070775;28;20183;-81
2022/01/06 08:38:02;;;;;;;3.25;1.30;;;;;;;;;;5072596;28;20031;-64
2022/01/06 08:40:28;;;;;;;3.38;1.23;;;;;;;;;;5071110;28;20070;-73
2022/01/06 08:42:54;;;;;;;4.50;1.60;;;;;;;;;;5073924;28;20032;-77
2022/01/06 08:45:20;;;;;;;4.03;1.20;;;;;;;;;;5075815;28;20024;-74
2022/01/06 08:47:47;;;;;;;4.00;1.60;;;;;;;;;;5072301;28;20028;-69
2022/01/06 08:50:13;;;;;;;4.18;1.20;;;;;;;;;;5071534;28;20021;-69
2022/01/06 08:52:40;;;;;;;5.05;1.40;;;;;;;;;;5071957;28;20044;-69
2022/01/06 08:55:07;;;;;;;4.18;1.33;;;;;;;;;;5071873;28;20016;-70
2022/01/06 08:57:38;;;;;;;9.20;1.55;;;;;;;;;;5072176;28;20166;-67
2022/01/06 09:00:09;;;;;;;4.90;1.70;;;;;;;;;;5092802;28;20020;-71
2022/01/06 09:02:35;;;;;;;4.10;1.48;;;;;;;;;;5092476;28;20066;-70
2022/01/06 09:05:05;;;;;;;7.82;1.38;;;;;;;;;;5092768;28;20035;-77
2022/01/06 09:07:32;;;;;;;4.78;1.30;;;;;;;;;;5092267;28;20103;-75
2022/01/06 09:09:58;;;;;;;5.93;1.15;;;;;;;;;;5092116;28;20035;-81
2022/01/06 09:12:24;;;;;;;3.63;1.20;;;;;;;;;;5091963;28;20028;-81
2022/01/06 09:14:50;;;;;;;3.63;1.20;;;;;;;;;;5092733;28;20499;-78
2022/01/06 09:17:16;;;;;;;6.60;1.42;;;;;;;;;;5092531;28;20381;-77
2022/01/06 09:19:42;;;;;;;5.78;1.30;;;;;;;;;;5092855;28;21245;-83
2022/01/06 09:22:08;;;;;;;11.95;1.58;;;;;;;;;;5091497;28;20028;-68
2022/01/06 09:24:35;;;;;;;4.50;1.38;;;;;;;;;;5090521;28;20373;-64
2022/01/06 09:27:01;;;;;;;6.60;1.83;;;;;;;;;;5092397;28;20023;-76
2022/01/06 09:29:27;;;;;;;4.82;1.40;;;;;;;;;;5092544;28;20081;-84
2022/01/06 09:31:53;;;;;;;4.60;1.25;;;;;;;;;;5092137;28;20031;-67
2022/01/06 09:34:19;;;;;;;6.38;1.50;;;;;;;;;;5092482;28;20121;-76
2022/01/06 09:36:45;;;;;;;7.85;1.50;;;;;;;;;;5091588;28;20069;-71
2022/01/06 09:39:11;;;;;;;5.45;1.40;;;;;;;;;;5092749;28;20024;-72
2022/01/06 09:41:38;;;;;;;6.75;2.00;;;;;;;;;;5092805;28;20121;-82
2022/01/06 09:44:04;;;;;;;4.53;1.40;;;;;;;;;;5093031;28;20023;-69
2022/01/06 09:46:30;;;;;;;4.07;1.20;;;;;;;;;;5093321;28;20067;-83
2022/01/06 09:48:59;;;;;;;2.58;1.00;;;;;;;;;;5093148;28;20070;-73
2022/01/06 09:51:26;;;;;;;4.15;1.80;;;;;;;;;;5095059;28;20118;-69
2022/01/06 09:53:53;;;;;;;6.22;1.40;;;;;;;;;;5098622;28;20036;-75
2022/01/06 09:56:20;;;;;;;7.40;1.50;;;;;;;;;;5095336;28;20031;-82
2022/01/06 09:58:46;;;;;;;6.70;1.48;;;;;;;;;;5093741;28;20476;-85
2022/01/06 10:01:12;;;;;;;5.22;1.45;;;;;;;;;;5093445;28;20024;-78
2022/01/06 10:03:39;;;;;;;3.33;1.48;;;;;;;;;;5079652;28;20104;-63
2022/01/06 10:06:12;;;;;;;3.92;1.38;;;;;;;;;;5073273;28;20135;-72
2022/01/06 10:08:38;;;;;;;7.78;1.83;;;;;;;;;;5072920;28;20073;-84
2022/01/06 10:11:31;;;;;;;7.10;1.67;;;;;;;;;;5073568;28;20016;-84
2022/01/06 10:14:04;;;;;;;4.97;1.30;;;;;;;;;;5069565;28;20539;-77
2022/01/06 10:16:30;;;;;;;6.10;1.83;;;;;;;;;;5073229;28;20517;-85
2022/01/06 10:18:58;;;;;;;6.00;1.42;;;;;;;;;;5072173;28;20025;-72
2022/01/06 10:21:25;;;;;;;4.40;1.15;;;;;;;;;;5070369;28;20021;-64
2022/01/06 10:24:01;;;;;;;4.53;1.45;;;;;;;;;;5071869;28;20053;-83
2022/01/06 10:26:27;;;;;;;4.03;1.20;;;;;;;;;;5081300;28;20020;-89
2022/01/06 10:28:53;;;;;;;4.20;1.15;;;;;;;;;;5091652;28;20453;-69
2022/01/06 10:31:23;;;;;;;2.83;1.13;;;;;;;;;;5092339;28;20047;-80
2022/01/06 10:33:49;;;;;;;4.00;1.00;;;;;;;;;;5091192;28;20040;-77
2022/01/06 10:36:15;;;;;;;6.07;1.40;;;;;;;;;;5091262;28;20496;-86
2022/01/06 10:38:41;;;;;;;3.70;1.20;;;;;;;;;;5085204;28;20450;-85
2022/01/06 10:41:12;;;;;;;5.55;1.40;;;;;;;;;;5072753;28;20427;-88
2022/01/06 10:43:38;;;;;;;3.33;1.35;;;;;;;;;;5074554;28;20096;-84
2022/01/06 10:46:04;;;;;;;3.63;1.27;;;;;;;;;;5095000;28;20020;-79
2022/01/06 10:48:30;;;;;;;4.95;1.60;;;;;;;;;;5095806;28;20024;-72
2022/01/06 10:50:57;;;;;;;4.85;1.23;;;;;;;;;;5095637;28;20028;-83
2022/01/06 10:53:23;;;;;;;3.80;1.30;;;;;;;;;;5095875;28;20040;-69
2022/01/06 10:55:49;;;;;;;3.33;1.02;;;;;;;;;;5095762;28;20492;-86
2022/01/06 10:58:19;;;;;;;5.45;1.65;;;;;;;;;;5090790;28;20027;-82
2022/01/06 11:00:48;;;;;;;3.80;1.33;;;;;;;;;;5085185;28;20099;-85
2022/01/06 11:03:21;;;;;;;5.57;1.20;;;;;;;;;;5095851;28;20020;-84
2022/01/06 11:05:51;;;;;;;6.05;1.20;;;;;;;;;;5096617;28;20024;-86
2022/01/06 11:08:20;;;;;;;4.50;1.55;;;;;;;;;;5095202;28;20060;-82
2022/01/06 11:10:49;;;;;;;3.45;1.30;;;;;;;;;;5096450;28;20016;-84
2022/01/06 11:13:17;;;;;;;5.82;1.25;;;;;;;;;;5096075;28;20036;-85
2022/01/06 11:15:43;;;;;;;3.67;1.08;;;;;;;;;;5095124;28;20064;-65
2022/01/06 11:18:10;;;;;;;3.65;1.27;;;;;;;;;;5094976;28;20530;-81
2022/01/06 11:20:36;;;;;;;5.40;1.40;;;;;;;;;;5107210;28;20023;-79
2022/01/06 11:23:02;;;;;;;4.15;1.17;;;;;;;;;;5104542;28;20051;-90
2022/01/06 11:25:38;;;;;;;3.88;1.02;;;;;;;;;;5095766;28;20464;-76
2022/01/06 11:28:06;;;;;;;3.58;1.05;;;;;;;;;;5095798;28;20366;-80
2022/01/06 11:30:59;;;;;;;4.53;1.40;;;;;;;;;;5095125;28;20024;-80
2022/01/06 11:33:25;;;;;;;2.75;1.08;;;;;;;;;;5091723;28;20083;-90
2022/01/06 11:35:56;;;;;;;4.13;1.30;;;;;;;;;;5096185;28;20618;-84
2022/01/06 11:38:25;;;;;;;2.90;1.00;;;;;;;;;;5094771;28;20095;-84
2022/01/06 11:40:52;;;;;;;5.65;1.60;;;;;;;;;;5096648;28;20099;-89
2022/01/06 11:43:19;;;;;;;3.95;1.40;;;;;;;;;;5095408;28;20035;-91
2022/01/06 11:45:46;;;;;;;3.67;1.48;;;;;;;;;;5095155;28;20013;-87
2022/01/06 11:48:14;;;;;;;3.90;1.35;;;;;;;;;;5094429;28;20634;-83
2022/01/06 11:50:47;;;;;;;2.08;0.80;;;;;;;;;;5095347;28;20031;-81
2022/01/06 11:53:14;;;;;;;4.00;1.10;;;;;;;;;;5093152;28;20032;-85
2022/01/06 11:55:41;;;;;;;4.82;1.25;;;;;;;;;;5092234;28;20389;-78
2022/01/06 11:58:12;;;;;;;5.30;1.33;;;;;;;;;;5080418;28;20517;-83
2022/01/06 12:00:42;;;;;;;4.47;1.42;;;;;;;;;;5077756;28;20597;-87
2022/01/06 12:03:10;;;;;;;4.15;1.30;;;;;;;;;;5095160;28;20103;-90
2022/01/06 12:05:51;;;;;;;6.40;1.20;;;;;;;;;;5100262;28;20077;-87
2022/01/06 12:08:18;;;;;;;5.07;1.25;;;;;;;;;;5095604;28;20024;-81
2022/01/06 12:10:46;;;;;;;6.03;1.45;;;;;;;;;;5093346;28;20016;-78
2022/01/06 12:13:12;;;;;;;3.75;1.17;;;;;;;;;;5093556;28;20030;-64
2022/01/06 12:15:48;;;;;;;5.57;1.80;;;;;;;;;;5093652;28;20085;-80
2022/01/06 12:18:17;;;;;;;4.93;1.58;;;;;;;;;;5093588;28;20020;-85
2022/01/06 12:20:45;;;;;;;3.20;1.27;;;;;;;;;;5092765;28;20028;-78
2022/01/06 12:23:11;;;;;;;5.63;1.38;;;;;;;;;;5092298;28;20059;-74
2022/01/06 12:25:37;;;;;;;3.72;1.40;;;;;;;;;;5093251;28;20031;-72
2022/01/06 12:28:04;;;;;;;4.07;1.13;;;;;;;;;;5092638;28;20051;-64
2022/01/06 12:30:34;;;;;;;4.07;1.20;;;;;;;;;;5092379;28;20016;-67
2022/01/06 12:33:06;;;;;;;4.63;1.40;;;;;;;;;;5091265;28;20036;-64
2022/01/06 12:35:40;;;;;;;4.13;1.30;;;;;;;;;;5091694;28;20024;-68
2022/01/06 12:38:06;;;;;;;4.75;1.60;;;;;;;;;;5092161;28;20054;-76
2022/01/06 12:40:37;;;;;;;4.53;1.40;;;;;;;;;;5092171;28;20024;-80
2022/01/06 12:43:13;;;;;;;5.40;1.40;;;;;;;;;;5093419;28;20023;-85
2022/01/06 12:45:39;;;;;;;3.83;1.40;;;;;;;;;;5092976;28;20016;-84
2022/01/06 12:48:05;;;;;;;3.72;1.10;;;;;;;;;;5091893;28;20408;-69
2022/01/06 12:50:42;;;;;;;5.50;1.88;;;;;;;;;;5092201;28;20023;-67
2022/01/06 12:53:08;;;;;;;4.13;1.27;;;;;;;;;;5090684;28;20121;-69
2022/01/06 12:55:41;;;;;;;3.10;1.00;;;;;;;;;;5091338;28;20016;-69
2022/01/06 12:58:07;;;;;;;5.78;1.42;;;;;;;;;;5078366;28;20016;-64
2022/01/06 13:00:33;;;;;;;4.20;1.40;;;;;;;;;;5070563;28;20031;-64
2022/01/06 13:03:04;;;;;;;3.88;1.30;;;;;;;;;;5071578;28;20016;-70
2022/01/06 13:05:30;;;;;;;5.43;1.33;;;;;;;;;;5072326;28;20013;-81
2022/01/06 13:08:06;;;;;;;3.65;1.33;;;;;;;;;;5072609;28;20024;-77
2022/01/06 13:10:32;;;;;;;4.65;1.40;;;;;;;;;;5072999;28;20027;-69
2022/01/06 13:13:05;;;;;;;3.67;1.25;;;;;;;;;;5090801;28;20051;-88
2022/01/06 13:15:32;;;;;;;3.90;1.17;;;;;;;;;;5092981;28;20031;-71
2022/01/06 13:17:59;;;;;;;3.42;1.10;;;;;;;;;;5092556;28;20062;-90
2022/01/06 13:20:26;;;;;;;5.30;1.30;;;;;;;;;;5093510;28;20023;-71
2022/01/06 13:25:21;;;;;;;3.83;1.10;;;;;;;;;;5094031;28;20028;-86
2022/01/06 13:27:54;;;;;;;3.13;1.13;;;;;;;;;;5091822;28;20380;-75
2022/01/06 13:30:29;;;;;;;2.90;1.00;;;;;;;;;;5073443;28;20561;-89
2022/01/06 13:32:56;;;;;;;4.38;1.08;;;;;;;;;;5072885;28;20469;-70
2022/01/06 13:35:22;;;;;;;3.33;0.90;;;;;;;;;;5072968;28;20032;-72
2022/01/06 13:37:48;;;;;;;8.70;1.10;;;;;;;;;;5080480;28;20425;-80
2022/01/06 13:40:15;;;;;;;4.13;1.20;;;;;;;;;;5083789;28;20021;-82
2022/01/06 13:42:42;;;;;;;8.27;1.30;;;;;;;;;;5072655;28;20024;-79
2022/01/06 13:45:21;;;;;;;8.23;1.15;;;;;;;;;;5090669;28;20024;-75
2022/01/06 13:47:53;;;;;;;7.75;1.70;;;;;;;;;;5092555;28;20044;-65
2022/01/06 13:53:19;;;;;;;9.20;1.55;;;;;;;;;;5092798;28;20039;-73
2022/01/06 13:56:08;;;;;;;6.38;1.30;;;;;;;;;;5095880;28;20157;-68
2022/01/06 13:58:41;;;;;;;3.92;1.17;;;;;;;;;;5097809;28;20050;-85
2022/01/06 14:01:10;;;;;;;6.63;1.50;;;;;;;;;;5092243;28;20019;-74
2022/01/06 14:03:36;;;;;;;4.20;1.23;;;;;;;;;;5092718;28;20105;-75
2022/01/06 14:06:04;;;;;;;5.53;1.40;;;;;;;;;;5092571;28;20029;-74
2022/01/06 14:08:30;;;;;;;3.55;1.30;;;;;;;;;;5093096;28;20747;-85
2022/01/06 14:10:56;;;;;;;3.83;1.30;;;;;;;;;;5092887;28;20012;-82
2022/01/06 14:13:22;;;;;;;5.28;1.40;;;;;;;;;;5092787;28;20028;-82
2022/01/06 14:15:48;;;;;;;4.45;1.50;;;;;;;;;;5093014;28;20021;-74
2022/01/06 14:18:14;;;;;;;2.67;1.17;;;;;;;;;;5094859;28;20070;-90
2022/01/06 14:20:41;;;;;;;3.08;1.00;;;;;;;;;;5096811;28;20016;-87
2022/01/06 14:23:07;;;;;;;2.95;1.20;;;;;;;;;;5096186;28;20040;-83
2022/01/06 14:25:33;;;;;;;4.75;1.30;;;;;;;;;;5096265;28;20056;-76
2022/01/06 14:27:59;;;;;;;3.90;1.25;;;;;;;;;;5096863;28;20051;-80
2022/01/06 14:30:25;;;;;;;3.65;1.13;;;;;;;;;;5096505;28;20499;-71
2022/01/06 14:32:52;;;;;;;3.65;1.17;;;;;;;;;;5086128;28;20040;-79
2022/01/06 14:35:18;;;;;;;4.47;1.20;;;;;;;;;;5075245;28;20337;-84
2022/01/06 14:37:45;;;;;;;3.75;1.08;;;;;;;;;;5094409;28;20088;-80
2022/01/06 14:40:11;;;;;;;4.50;0.98;;;;;;;;;;5095738;28;20024;-84
2022/01/06 14:42:37;;;;;;;4.50;1.00;;;;;;;;;;5096897;28;20024;-80
2022/01/06 14:45:04;;;;;;;9.85;1.55;;;;;;;;;;5095308;28;20012;-72
2022/01/06 14:47:30;;;;;;;3.75;1.00;;;;;;;;;;5095382;28;20028;-83
2022/01/06 14:49:56;;;;;;;2.72;1.10;;;;;;;;;;5097354;28;20018;-82
2022/01/06 14:55:08;;;;;;;3.67;1.08;;;;;;;;;;5099047;28;20031;-68
2022/01/06 14:57:34;;;;;;;3.47;0.90;;;;;;;;;;5097151;28;20028;-71